sensor_id;sensor_type;location;lat;lon;timestamp;pressure;altitude;pressure_sealevel;temperature;humidity
74372;BME280;62885;51.374;6.170;2023-07-13T00:00:55;101051.13;;;17.56;64.56
74372;BME280;62885;51.374;6.170;2023-07-13T00:03:21;101053.84;;;17.56;64.78
74372;BME280;62885;51.374;6.170;2023-07-13T00:05:46;101050.44;;;17.54;65.02
74372;BME280;62885;51.374;6.170;2023-07-13T00:08:13;101047.66;;;17.46;65.14
74372;BME280;62885;51.374;6.170;2023-07-13T00:10:40;101052.47;;;17.52;64.69
74372;BME280;62885;51.374;6.170;2023-07-13T00:13:06;101059.72;;;17.51;64.54
74372;BME280;62885;51.374;6.170;2023-07-13T00:15:32;101052.22;;;17.45;64.00
74372;BME280;62885;51.374;6.170;2023-07-13T00:17:57;101059.88;;;17.50;63.58
74372;BME280;62885;51.374;6.170;2023-07-13T00:20:24;101057.63;;;17.45;63.83
74372;BME280;62885;51.374;6.170;2023-07-13T00:22:51;101054.31;;;17.51;64.45
74372;BME280;62885;51.374;6.170;2023-07-13T00:25:19;101052.81;;;17.39;65.01
74372;BME280;62885;51.374;6.170;2023-07-13T00:27:46;101053.53;;;17.41;65.42
74372;BME280;62885;51.374;6.170;2023-07-13T00:30:14;101058.38;;;17.38;65.96
74372;BME280;62885;51.374;6.170;2023-07-13T00:32:39;101055.88;;;17.27;66.15
74372;BME280;62885;51.374;6.170;2023-07-13T00:35:05;101057.59;;;17.28;66.12
74372;BME280;62885;51.374;6.170;2023-07-13T00:37:31;101055.16;;;17.24;66.29
74372;BME280;62885;51.374;6.170;2023-07-13T00:39:56;101066.31;;;17.21;66.79
74372;BME280;62885;51.374;6.170;2023-07-13T00:42:22;101062.22;;;17.17;66.70
74372;BME280;62885;51.374;6.170;2023-07-13T00:47:46;101058.78;;;17.15;67.85
74372;BME280;62885;51.374;6.170;2023-07-13T00:50:14;101060.66;;;17.15;68.52
74372;BME280;62885;51.374;6.170;2023-07-13T00:52:44;101060.66;;;17.15;68.51
74372;BME280;62885;51.374;6.170;2023-07-13T00:55:11;101059.25;;;17.11;68.09
74372;BME280;62885;51.374;6.170;2023-07-13T00:57:37;101060.84;;;17.04;68.40
74372;BME280;62885;51.374;6.170;2023-07-13T01:00:05;101057.00;;;17.06;68.35
74372;BME280;62885;51.374;6.170;2023-07-13T01:02:33;101063.16;;;16.99;69.04
74372;BME280;62885;51.374;6.170;2023-07-13T01:04:59;101066.38;;;17.12;69.91
74372;BME280;62885;51.374;6.170;2023-07-13T01:07:25;101067.56;;;17.00;70.05
74372;BME280;62885;51.374;6.170;2023-07-13T01:09:50;101061.59;;;16.96;70.05
74372;BME280;62885;51.374;6.170;2023-07-13T01:12:16;101064.16;;;16.98;70.39
74372;BME280;62885;51.374;6.170;2023-07-13T01:14:41;101066.72;;;16.99;69.88
74372;BME280;62885;51.374;6.170;2023-07-13T01:17:09;101066.06;;;16.88;70.71
74372;BME280;62885;51.374;6.170;2023-07-13T01:19:41;101062.69;;;16.76;70.67
74372;BME280;62885;51.374;6.170;2023-07-13T01:22:16;101064.53;;;16.75;70.96
74372;BME280;62885;51.374;6.170;2023-07-13T01:24:46;101052.91;;;16.65;71.75
74372;BME280;62885;51.374;6.170;2023-07-13T01:27:14;101055.59;;;16.65;72.18
74372;BME280;62885;51.374;6.170;2023-07-13T01:29:42;101060.25;;;16.73;72.45
74372;BME280;62885;51.374;6.170;2023-07-13T01:32:10;101062.69;;;16.66;72.45
74372;BME280;62885;51.374;6.170;2023-07-13T01:34:36;101060.44;;;16.71;72.40
74372;BME280;62885;51.374;6.170;2023-07-13T01:37:03;101076.03;;;16.77;72.44
74372;BME280;62885;51.374;6.170;2023-07-13T01:39:31;101071.06;;;16.73;72.42
74372;BME280;62885;51.374;6.170;2023-07-13T01:41:57;101075.94;;;16.69;72.72
74372;BME280;62885;51.374;6.170;2023-07-13T01:44:23;101071.81;;;16.65;72.78
74372;BME280;62885;51.374;6.170;2023-07-13T01:46:48;101072.09;;;16.62;72.50
74372;BME280;62885;51.374;6.170;2023-07-13T01:49:13;101067.97;;;16.49;73.02
74372;BME280;62885;51.374;6.170;2023-07-13T01:51:39;101065.41;;;16.57;72.75
74372;BME280;62885;51.374;6.170;2023-07-13T01:54:04;101067.25;;;16.56;72.26
74372;BME280;62885;51.374;6.170;2023-07-13T01:56:30;101067.16;;;16.48;72.71
74372;BME280;62885;51.374;6.170;2023-07-13T01:58:55;101063.00;;;16.44;73.13
74372;BME280;62885;51.374;6.170;2023-07-13T02:01:22;101063.88;;;16.35;73.77
74372;BME280;62885;51.374;6.170;2023-07-13T02:03:47;101059.91;;;16.29;74.40
74372;BME280;62885;51.374;6.170;2023-07-13T02:06:12;101048.69;;;16.24;74.13
74372;BME280;62885;51.374;6.170;2023-07-13T02:08:41;101064.34;;;16.30;74.17
74372;BME280;62885;51.374;6.170;2023-07-13T02:11:07;101070.72;;;16.29;74.78
74372;BME280;62885;51.374;6.170;2023-07-13T02:13:33;101065.88;;;16.33;74.67
74372;BME280;62885;51.374;6.170;2023-07-13T02:15:58;101065.47;;;16.28;75.07
74372;BME280;62885;51.374;6.170;2023-07-13T02:18:23;101058.66;;;16.24;75.79
74372;BME280;62885;51.374;6.170;2023-07-13T02:20:49;101064.06;;;16.24;75.28
74372;BME280;62885;51.374;6.170;2023-07-13T02:23:15;101055.81;;;16.16;75.35
74372;BME280;62885;51.374;6.170;2023-07-13T02:25:40;101056.38;;;16.10;76.45
74372;BME280;62885;51.374;6.170;2023-07-13T02:28:06;101061.66;;;16.11;76.67
74372;BME280;62885;51.374;6.170;2023-07-13T02:30:32;101054.97;;;16.06;77.42
74372;BME280;62885;51.374;6.170;2023-07-13T02:32:57;101053.41;;;16.13;76.52
74372;BME280;62885;51.374;6.170;2023-07-13T02:35:22;101058.38;;;16.17;76.25
74372;BME280;62885;51.374;6.170;2023-07-13T02:37:48;101061.06;;;16.17;76.04
74372;BME280;62885;51.374;6.170;2023-07-13T02:40:14;101070.59;;;16.12;76.69
74372;BME280;62885;51.374;6.170;2023-07-13T02:42:40;101070.59;;;16.12;76.64
74372;BME280;62885;51.374;6.170;2023-07-13T02:45:06;101076.00;;;16.12;77.13
74372;BME280;62885;51.374;6.170;2023-07-13T02:47:33;101068.91;;;16.11;77.96
74372;BME280;62885;51.374;6.170;2023-07-13T02:49:58;101077.00;;;16.11;77.44
74372;BME280;62885;51.374;6.170;2023-07-13T02:52:24;101070.88;;;16.09;77.95
74372;BME280;62885;51.374;6.170;2023-07-13T02:54:50;101075.31;;;16.00;78.41
74372;BME280;62885;51.374;6.170;2023-07-13T02:57:16;101080.28;;;16.05;78.09
74372;BME280;62885;51.374;6.170;2023-07-13T02:59:41;101078.84;;;16.00;77.89
74372;BME280;62885;51.374;6.170;2023-07-13T03:02:07;101085.13;;;16.01;78.79
74372;BME280;62885;51.374;6.170;2023-07-13T03:04:32;101091.63;;;15.98;79.49
74372;BME280;62885;51.374;6.170;2023-07-13T03:06:57;101088.22;;;15.96;79.83
74372;BME280;62885;51.374;6.170;2023-07-13T03:09:24;101089.66;;;16.00;79.46
74372;BME280;62885;51.374;6.170;2023-07-13T03:11:53;101098.75;;;15.99;79.24
74372;BME280;62885;51.374;6.170;2023-07-13T03:14:19;101088.50;;;16.03;79.68
74372;BME280;62885;51.374;6.170;2023-07-13T03:16:44;101093.63;;;15.96;79.86
74372;BME280;62885;51.374;6.170;2023-07-13T03:19:09;101091.09;;;15.95;79.58
74372;BME280;62885;51.374;6.170;2023-07-13T03:21:35;101096.63;;;15.93;79.68
74372;BME280;62885;51.374;6.170;2023-07-13T03:24:00;101100.59;;;15.89;80.41
74372;BME280;62885;51.374;6.170;2023-07-13T03:26:26;101096.75;;;15.92;80.50
74372;BME280;62885;51.374;6.170;2023-07-13T03:28:51;101091.22;;;15.93;80.69
74372;BME280;62885;51.374;6.170;2023-07-13T03:31:19;101100.00;;;15.86;81.38
74372;BME280;62885;51.374;6.170;2023-07-13T03:33:45;101093.75;;;15.85;80.99
74372;BME280;62885;51.374;6.170;2023-07-13T03:36:23;101095.03;;;15.81;81.95
74372;BME280;62885;51.374;6.170;2023-07-13T03:38:51;101097.75;;;15.81;81.78
74372;BME280;62885;51.374;6.170;2023-07-13T03:41:18;101100.31;;;15.83;82.01
74372;BME280;62885;51.374;6.170;2023-07-13T03:43:43;101105.53;;;15.84;82.37
74372;BME280;62885;51.374;6.170;2023-07-13T03:46:09;101107.44;;;15.84;82.55
74372;BME280;62885;51.374;6.170;2023-07-13T03:48:35;101110.53;;;15.79;82.82
74372;BME280;62885;51.374;6.170;2023-07-13T03:51:00;101112.81;;;15.84;82.97
74372;BME280;62885;51.374;6.170;2023-07-13T03:53:26;101108.84;;;15.78;83.45
74372;BME280;62885;51.374;6.170;2023-07-13T03:55:51;101105.00;;;15.81;83.67
74372;BME280;62885;51.374;6.170;2023-07-13T03:58:28;101110.94;;;15.75;84.17
74372;BME280;62885;51.374;6.170;2023-07-13T04:00:55;101113.78;;;15.73;83.75
74372;BME280;62885;51.374;6.170;2023-07-13T04:03:21;101112.78;;;15.74;83.91
74372;BME280;62885;51.374;6.170;2023-07-13T04:05:46;101120.47;;;15.79;84.23
74372;BME280;62885;51.374;6.170;2023-07-13T04:08:12;101114.25;;;15.78;83.76
74372;BME280;62885;51.374;6.170;2023-07-13T04:10:38;101114.25;;;15.78;84.11
74372;BME280;62885;51.374;6.170;2023-07-13T04:13:04;101114.94;;;15.80;84.07
74372;BME280;62885;51.374;6.170;2023-07-13T04:15:31;101112.22;;;15.80;84.00
74372;BME280;62885;51.374;6.170;2023-07-13T04:17:57;101121.31;;;15.79;83.42
74372;BME280;62885;51.374;6.170;2023-07-13T04:20:23;101122.59;;;15.75;84.36
74372;BME280;62885;51.374;6.170;2023-07-13T04:22:49;101116.22;;;15.76;84.52
74372;BME280;62885;51.374;6.170;2023-07-13T04:25:15;101124.19;;;15.87;84.09
74372;BME280;62885;51.374;6.170;2023-07-13T04:27:40;101116.63;;;15.91;83.94
74372;BME280;62885;51.374;6.170;2023-07-13T04:30:06;101121.66;;;15.95;83.65
74372;BME280;62885;51.374;6.170;2023-07-13T04:32:32;101126.19;;;16.33;82.09
74372;BME280;62885;51.374;6.170;2023-07-13T04:34:58;101123.03;;;16.38;82.15
74372;BME280;62885;51.374;6.170;2023-07-13T04:37:25;101127.03;;;16.63;80.64
74372;BME280;62885;51.374;6.170;2023-07-13T04:39:50;101136.41;;;16.68;80.09
74372;BME280;62885;51.374;6.170;2023-07-13T04:42:16;101138.03;;;16.98;78.73
74372;BME280;62885;51.374;6.170;2023-07-13T04:44:41;101137.53;;;17.12;78.39
74372;BME280;62885;51.374;6.170;2023-07-13T04:47:07;101131.22;;;17.31;77.87
74372;BME280;62885;51.374;6.170;2023-07-13T04:49:32;101131.59;;;17.36;78.22
74372;BME280;62885;51.374;6.170;2023-07-13T04:51:58;101139.31;;;17.41;77.52
74372;BME280;62885;51.374;6.170;2023-07-13T04:54:23;101132.66;;;17.62;76.88
74372;BME280;62885;51.374;6.170;2023-07-13T04:56:49;101145.59;;;17.69;76.51
74372;BME280;62885;51.374;6.170;2023-07-13T04:59:14;101155.50;;;17.78;75.68
74372;BME280;62885;51.374;6.170;2023-07-13T05:01:40;101146.22;;;17.80;75.59
74372;BME280;62885;51.374;6.170;2023-07-13T05:04:06;101146.88;;;17.92;75.54
74372;BME280;62885;51.374;6.170;2023-07-13T05:06:32;101156.00;;;18.26;74.71
74372;BME280;62885;51.374;6.170;2023-07-13T05:08:57;101160.09;;;18.30;73.33
74372;BME280;62885;51.374;6.170;2023-07-13T05:11:23;101165.00;;;18.09;74.32
74372;BME280;62885;51.374;6.170;2023-07-13T05:13:49;101162.66;;;17.96;75.15
74372;BME280;62885;51.374;6.170;2023-07-13T05:16:14;101158.84;;;18.42;73.76
74372;BME280;62885;51.374;6.170;2023-07-13T05:18:40;101158.88;;;18.60;72.28
74372;BME280;62885;51.374;6.170;2023-07-13T05:21:08;101160.44;;;18.63;71.87
74372;BME280;62885;51.374;6.170;2023-07-13T05:23:35;101163.69;;;18.92;71.03
74372;BME280;62885;51.374;6.170;2023-07-13T05:26:01;101170.75;;;19.11;69.71
74372;BME280;62885;51.374;6.170;2023-07-13T05:28:28;101166.75;;;19.49;68.75
74372;BME280;62885;51.374;6.170;2023-07-13T05:30:54;101174.44;;;19.27;69.18
74372;BME280;62885;51.374;6.170;2023-07-13T05:33:20;101174.94;;;18.97;70.16
74372;BME280;62885;51.374;6.170;2023-07-13T05:35:45;101178.66;;;18.96;70.47
74372;BME280;62885;51.374;6.170;2023-07-13T05:38:11;101181.25;;;19.40;69.45
74372;BME280;62885;51.374;6.170;2023-07-13T05:40:37;101183.41;;;19.54;68.21
74372;BME280;62885;51.374;6.170;2023-07-13T05:43:02;101192.00;;;19.15;69.35
74372;BME280;62885;51.374;6.170;2023-07-13T05:45:28;101195.41;;;18.92;70.82
74372;BME280;62885;51.374;6.170;2023-07-13T05:47:53;101195.03;;;18.86;70.80
74372;BME280;62885;51.374;6.170;2023-07-13T05:50:19;101200.00;;;18.38;73.03
74372;BME280;62885;51.374;6.170;2023-07-13T05:52:44;101195.81;;;18.08;74.57
74372;BME280;62885;51.374;6.170;2023-07-13T05:55:10;101200.63;;;18.50;73.23
74372;BME280;62885;51.374;6.170;2023-07-13T05:57:35;101200.78;;;18.30;73.94
74372;BME280;62885;51.374;6.170;2023-07-13T06:00:01;101200.72;;;17.95;75.46
74372;BME280;62885;51.374;6.170;2023-07-13T06:02:27;101201.59;;;17.95;75.92
74372;BME280;62885;51.374;6.170;2023-07-13T06:04:53;101206.75;;;17.89;76.46
74372;BME280;62885;51.374;6.170;2023-07-13T06:07:18;101206.09;;;17.77;77.15
74372;BME280;62885;51.374;6.170;2023-07-13T06:09:44;101203.38;;;17.87;77.13
74372;BME280;62885;51.374;6.170;2023-07-13T06:12:09;101215.88;;;17.60;78.69
74372;BME280;62885;51.374;6.170;2023-07-13T06:14:35;101218.44;;;17.62;78.79
74372;BME280;62885;51.374;6.170;2023-07-13T06:17:00;101213.44;;;17.67;79.03
74372;BME280;62885;51.374;6.170;2023-07-13T06:19:26;101221.47;;;17.86;78.98
74372;BME280;62885;51.374;6.170;2023-07-13T06:21:51;101220.22;;;17.81;78.70
74372;BME280;62885;51.374;6.170;2023-07-13T06:24:17;101219.09;;;17.74;78.83
74372;BME280;62885;51.374;6.170;2023-07-13T06:26:42;101224.81;;;17.71;78.77
74372;BME280;62885;51.374;6.170;2023-07-13T06:29:08;101226.97;;;17.67;79.07
74372;BME280;62885;51.374;6.170;2023-07-13T06:31:33;101227.88;;;17.85;78.40
74372;BME280;62885;51.374;6.170;2023-07-13T06:33:59;101235.09;;;17.94;78.48
74372;BME280;62885;51.374;6.170;2023-07-13T06:36:24;101229.53;;;17.96;78.04
74372;BME280;62885;51.374;6.170;2023-07-13T06:38:50;101228.69;;;17.95;78.97
74372;BME280;62885;51.374;6.170;2023-07-13T06:41:15;101238.53;;;17.96;79.10
74372;BME280;62885;51.374;6.170;2023-07-13T06:43:41;101241.94;;;17.98;79.03
74372;BME280;62885;51.374;6.170;2023-07-13T06:46:06;101237.44;;;18.07;78.45
74372;BME280;62885;51.374;6.170;2023-07-13T06:48:32;101247.03;;;18.01;78.55
74372;BME280;62885;51.374;6.170;2023-07-13T06:50:57;101238.78;;;17.76;79.33
74372;BME280;62885;51.374;6.170;2023-07-13T06:53:23;101248.44;;;17.78;80.07
74372;BME280;62885;51.374;6.170;2023-07-13T06:55:48;101249.75;;;17.74;79.69
74372;BME280;62885;51.374;6.170;2023-07-13T06:58:16;101254.47;;;17.72;80.27
74372;BME280;62885;51.374;6.170;2023-07-13T07:00:42;101251.72;;;17.82;79.60
74372;BME280;62885;51.374;6.170;2023-07-13T07:03:07;101263.16;;;17.76;79.53
74372;BME280;62885;51.374;6.170;2023-07-13T07:05:33;101248.31;;;17.80;79.66
74372;BME280;62885;51.374;6.170;2023-07-13T07:07:58;101253.66;;;17.89;79.71
74372;BME280;62885;51.374;6.170;2023-07-13T07:10:25;101259.06;;;17.99;78.99
74372;BME280;62885;51.374;6.170;2023-07-13T07:12:51;101259.78;;;17.91;80.03
74372;BME280;62885;51.374;6.170;2023-07-13T07:15:17;101268.38;;;17.87;80.20
74372;BME280;62885;51.374;6.170;2023-07-13T07:17:43;101261.03;;;17.97;79.17
74372;BME280;62885;51.374;6.170;2023-07-13T07:20:09;101262.38;;;17.93;79.66
74372;BME280;62885;51.374;6.170;2023-07-13T07:22:35;101260.59;;;18.01;78.96
74372;BME280;62885;51.374;6.170;2023-07-13T07:25:00;101268.19;;;17.98;79.00
74372;BME280;62885;51.374;6.170;2023-07-13T07:27:26;101264.88;;;18.04;79.05
74372;BME280;62885;51.374;6.170;2023-07-13T07:29:51;101267.47;;;17.96;79.70
74372;BME280;62885;51.374;6.170;2023-07-13T07:32:18;101272.16;;;17.94;79.33
74372;BME280;62885;51.374;6.170;2023-07-13T07:34:44;101264.91;;;17.94;79.41
74372;BME280;62885;51.374;6.170;2023-07-13T07:37:12;101267.56;;;18.04;79.13
74372;BME280;62885;51.374;6.170;2023-07-13T07:39:37;101271.09;;;17.87;79.78
74372;BME280;62885;51.374;6.170;2023-07-13T07:42:04;101273.88;;;17.95;80.12
74372;BME280;62885;51.374;6.170;2023-07-13T07:44:31;101267.47;;;17.96;79.69
74372;BME280;62885;51.374;6.170;2023-07-13T07:46:56;101274.47;;;17.98;80.35
74372;BME280;62885;51.374;6.170;2023-07-13T07:49:22;101281.94;;;17.77;80.92
74372;BME280;62885;51.374;6.170;2023-07-13T07:51:47;101271.34;;;17.93;81.38
74372;BME280;62885;51.374;6.170;2023-07-13T07:54:13;101270.97;;;18.06;81.08
74372;BME280;62885;51.374;6.170;2023-07-13T07:56:40;101274.88;;;18.21;80.09
74372;BME280;62885;51.374;6.170;2023-07-13T07:59:05;101275.69;;;18.49;78.52
74372;BME280;62885;51.374;6.170;2023-07-13T08:01:30;101279.56;;;18.46;77.80
74372;BME280;62885;51.374;6.170;2023-07-13T08:03:56;101279.69;;;18.55;77.49
74372;BME280;62885;51.374;6.170;2023-07-13T08:06:21;101278.88;;;18.44;77.85
74372;BME280;62885;51.374;6.170;2023-07-13T08:08:48;101277.69;;;18.57;77.92
74372;BME280;62885;51.374;6.170;2023-07-13T08:11:13;101273.50;;;18.80;77.51
74372;BME280;62885;51.374;6.170;2023-07-13T08:13:39;101275.81;;;18.75;77.28
74372;BME280;62885;51.374;6.170;2023-07-13T08:16:05;101281.78;;;18.78;76.42
74372;BME280;62885;51.374;6.170;2023-07-13T08:18:31;101278.69;;;18.91;75.57
74372;BME280;62885;51.374;6.170;2023-07-13T08:20:56;101283.22;;;19.08;75.14
74372;BME280;62885;51.374;6.170;2023-07-13T08:23:24;101283.41;;;18.89;75.72
74372;BME280;62885;51.374;6.170;2023-07-13T08:25:53;101270.75;;;19.15;74.94
74372;BME280;62885;51.374;6.170;2023-07-13T08:28:21;101287.41;;;19.20;74.52
74372;BME280;62885;51.374;6.170;2023-07-13T08:30:47;101277.44;;;19.29;73.90
74372;BME280;62885;51.374;6.170;2023-07-13T08:33:15;101268.50;;;19.37;73.24
74372;BME280;62885;51.374;6.170;2023-07-13T08:35:41;101274.03;;;19.27;73.61
74372;BME280;62885;51.374;6.170;2023-07-13T08:38:06;101279.50;;;19.53;73.16
74372;BME280;62885;51.374;6.170;2023-07-13T08:40:33;101282.16;;;19.71;73.21
74372;BME280;62885;51.374;6.170;2023-07-13T08:42:59;101276.63;;;19.88;72.42
74372;BME280;62885;51.374;6.170;2023-07-13T08:45:43;101280.91;;;19.91;72.19
74372;BME280;62885;51.374;6.170;2023-07-13T08:51:04;101275.94;;;19.86;71.99
74372;BME280;62885;51.374;6.170;2023-07-13T08:53:43;101277.03;;;20.01;71.06
74372;BME280;62885;51.374;6.170;2023-07-13T08:56:18;101277.34;;;19.98;71.42
74372;BME280;62885;51.374;6.170;2023-07-13T08:58:48;101269.88;;;20.00;70.75
74372;BME280;62885;51.374;6.170;2023-07-13T09:01:20;101281.78;;;19.99;70.33
74372;BME280;62885;51.374;6.170;2023-07-13T09:06:17;101275.28;;;19.92;70.44
74372;BME280;62885;51.374;6.170;2023-07-13T09:11:41;101275.97;;;19.94;70.15
74372;BME280;62885;51.374;6.170;2023-07-13T09:16:56;101279.28;;;20.14;67.89
74372;BME280;62885;51.374;6.170;2023-07-13T09:19:27;101273.16;;;20.12;67.99
74372;BME280;62885;51.374;6.170;2023-07-13T09:21:55;101279.91;;;20.42;67.99
74372;BME280;62885;51.374;6.170;2023-07-13T09:27:30;101285.94;;;20.28;65.94
74372;BME280;62885;51.374;6.170;2023-07-13T09:32:44;101275.78;;;20.30;65.31
74372;BME280;62885;51.374;6.170;2023-07-13T09:35:16;101281.16;;;20.56;65.63
74372;BME280;62885;51.374;6.170;2023-07-13T09:37:43;101275.53;;;20.65;65.76
74372;BME280;62885;51.374;6.170;2023-07-13T09:40:22;101285.91;;;20.70;65.09
74372;BME280;62885;51.374;6.170;2023-07-13T09:42:52;101288.97;;;20.59;64.80
74372;BME280;62885;51.374;6.170;2023-07-13T09:45:27;101289.25;;;20.39;64.32
74372;BME280;62885;51.374;6.170;2023-07-13T09:48:05;101286.41;;;20.57;64.17
74372;BME280;62885;51.374;6.170;2023-07-13T09:50:31;101283.34;;;20.60;63.81
74372;BME280;62885;51.374;6.170;2023-07-13T09:52:57;101281.69;;;20.83;63.38
74372;BME280;62885;51.374;6.170;2023-07-13T09:55:37;101278.97;;;20.83;63.09
74372;BME280;62885;51.374;6.170;2023-07-13T09:58:10;101284.41;;;20.83;63.50
74372;BME280;62885;51.374;6.170;2023-07-13T10:00:37;101287.44;;;20.64;63.24
74372;BME280;62885;51.374;6.170;2023-07-13T10:05:41;101288.84;;;20.84;62.80
74372;BME280;62885;51.374;6.170;2023-07-13T10:08:36;101278.97;;;20.83;61.84
74372;BME280;62885;51.374;6.170;2023-07-13T10:11:15;101288.97;;;20.91;61.75
74372;BME280;62885;51.374;6.170;2023-07-13T10:13:52;101279.31;;;21.13;60.59
74372;BME280;62885;51.374;6.170;2023-07-13T10:16:21;101281.19;;;21.28;59.69
74372;BME280;62885;51.374;6.170;2023-07-13T10:19:10;101276.94;;;21.18;60.26
74372;BME280;62885;51.374;6.170;2023-07-13T10:21:50;101284.94;;;21.27;60.67
74372;BME280;62885;51.374;6.170;2023-07-13T10:24:23;101294.31;;;21.25;59.93
74372;BME280;62885;51.374;6.170;2023-07-13T10:27:14;101286.28;;;21.40;59.33
74372;BME280;62885;51.374;6.170;2023-07-13T10:29:52;101290.28;;;21.76;58.03
74372;BME280;62885;51.374;6.170;2023-07-13T10:32:25;101284.09;;;21.90;57.17
74372;BME280;62885;51.374;6.170;2023-07-13T10:34:50;101289.75;;;21.81;57.55
74372;BME280;62885;51.374;6.170;2023-07-13T10:37:23;101288.19;;;21.94;58.04
74372;BME280;62885;51.374;6.170;2023-07-13T10:39:52;101289.97;;;21.71;57.49
74372;BME280;62885;51.374;6.170;2023-07-13T10:42:34;101284.16;;;21.74;56.36
74372;BME280;62885;51.374;6.170;2023-07-13T10:45:00;101273.63;;;21.71;56.42
74372;BME280;62885;51.374;6.170;2023-07-13T10:47:26;101284.78;;;21.84;57.46
74372;BME280;62885;51.374;6.170;2023-07-13T10:49:56;101282.91;;;21.85;56.02
74372;BME280;62885;51.374;6.170;2023-07-13T10:52:49;101277.13;;;21.88;56.79
74372;BME280;62885;51.374;6.170;2023-07-13T10:55:40;101295.00;;;21.98;55.37
74372;BME280;62885;51.374;6.170;2023-07-13T11:00:46;101286.16;;;21.96;56.69
74372;BME280;62885;51.374;6.170;2023-07-13T11:03:15;101292.44;;;22.05;55.92
74372;BME280;62885;51.374;6.170;2023-07-13T11:05:43;101284.16;;;22.21;54.65
74372;BME280;62885;51.374;6.170;2023-07-13T11:10:53;101287.13;;;22.42;53.29
74372;BME280;62885;51.374;6.170;2023-07-13T11:18:52;101272.28;;;22.68;54.02
74372;BME280;62885;51.374;6.170;2023-07-13T11:21:20;101272.44;;;22.74;53.52
74372;BME280;62885;51.374;6.170;2023-07-13T11:24:00;101283.50;;;22.81;53.08
74372;BME280;62885;51.374;6.170;2023-07-13T11:31:41;101295.31;;;22.73;54.07
74372;BME280;62885;51.374;6.170;2023-07-13T11:34:13;101281.31;;;22.76;52.59
74372;BME280;62885;51.374;6.170;2023-07-13T11:36:43;101278.13;;;23.10;52.61
74372;BME280;62885;51.374;6.170;2023-07-13T11:41:58;101282.25;;;22.83;49.88
74372;BME280;62885;51.374;6.170;2023-07-13T11:44:26;101285.19;;;22.82;50.89
74372;BME280;62885;51.374;6.170;2023-07-13T11:46:55;101280.69;;;22.89;51.94
74372;BME280;62885;51.374;6.170;2023-07-13T11:49:22;101269.13;;;22.87;51.05
74372;BME280;62885;51.374;6.170;2023-07-13T11:51:48;101283.97;;;22.84;50.82
74372;BME280;62885;51.374;6.170;2023-07-13T11:56:52;101297.50;;;22.78;51.94
74372;BME280;62885;51.374;6.170;2023-07-13T11:59:18;101302.31;;;22.37;56.11
74372;BME280;62885;51.374;6.170;2023-07-13T12:01:48;101308.44;;;22.08;60.05
74372;BME280;62885;51.374;6.170;2023-07-13T12:04:26;101306.31;;;21.71;60.25
74372;BME280;62885;51.374;6.170;2023-07-13T12:06:58;101301.38;;;21.75;60.79
74372;BME280;62885;51.374;6.170;2023-07-13T12:09:28;101304.03;;;21.91;59.72
74372;BME280;62885;51.374;6.170;2023-07-13T12:11:56;101289.75;;;22.28;58.39
74372;BME280;62885;51.374;6.170;2023-07-13T12:14:22;101304.06;;;22.61;56.93
74372;BME280;62885;51.374;6.170;2023-07-13T12:16:50;101294.97;;;22.76;54.19
74372;BME280;62885;51.374;6.170;2023-07-13T12:19:21;101295.69;;;22.93;52.50
74372;BME280;62885;51.374;6.170;2023-07-13T12:21:48;101286.69;;;23.07;51.25
74372;BME280;62885;51.374;6.170;2023-07-13T12:24:16;101294.53;;;23.10;50.72
74372;BME280;62885;51.374;6.170;2023-07-13T12:26:42;101290.25;;;23.08;50.80
74372;BME280;62885;51.374;6.170;2023-07-13T12:29:07;101284.16;;;23.06;50.34
74372;BME280;62885;51.374;6.170;2023-07-13T12:31:37;101278.94;;;22.96;50.09
74372;BME280;62885;51.374;6.170;2023-07-13T12:36:53;101282.63;;;23.41;50.07
74372;BME280;62885;51.374;6.170;2023-07-13T12:39:34;101290.78;;;23.49;49.96
74372;BME280;62885;51.374;6.170;2023-07-13T12:44:53;101299.28;;;23.83;49.27
74372;BME280;62885;51.374;6.170;2023-07-13T12:47:20;101295.13;;;23.58;48.12
74372;BME280;62885;51.374;6.170;2023-07-13T12:49:53;101303.50;;;23.71;45.22
74372;BME280;62885;51.374;6.170;2023-07-13T12:52:33;101294.63;;;23.54;46.42
74372;BME280;62885;51.374;6.170;2023-07-13T12:55:06;101305.13;;;23.65;46.59
74372;BME280;62885;51.374;6.170;2023-07-13T12:57:57;101301.44;;;23.73;46.02
74372;BME280;62885;51.374;6.170;2023-07-13T13:00:32;101290.69;;;23.57;46.97
74372;BME280;62885;51.374;6.170;2023-07-13T13:03:02;101303.16;;;23.89;47.33
74372;BME280;62885;51.374;6.170;2023-07-13T13:05:30;101310.59;;;23.65;48.42
74372;BME280;62885;51.374;6.170;2023-07-13T13:07:56;101302.38;;;23.65;48.46
74372;BME280;62885;51.374;6.170;2023-07-13T13:10:22;101305.69;;;23.61;47.76
74372;BME280;62885;51.374;6.170;2023-07-13T13:12:48;101312.28;;;23.66;46.55
74372;BME280;62885;51.374;6.170;2023-07-13T13:15:13;101304.19;;;23.73;47.54
74372;BME280;62885;51.374;6.170;2023-07-13T13:17:39;101310.44;;;23.82;47.93
74372;BME280;62885;51.374;6.170;2023-07-13T13:20:16;101309.75;;;23.80;45.99
74372;BME280;62885;51.374;6.170;2023-07-13T13:22:42;101309.38;;;23.68;46.17
74372;BME280;62885;51.374;6.170;2023-07-13T13:25:11;101302.66;;;23.70;46.19
74372;BME280;62885;51.374;6.170;2023-07-13T13:27:39;101307.97;;;24.01;46.16
74372;BME280;62885;51.374;6.170;2023-07-13T13:30:16;101311.94;;;23.99;47.59
74372;BME280;62885;51.374;6.170;2023-07-13T13:32:44;101315.41;;;24.07;46.99
74372;BME280;62885;51.374;6.170;2023-07-13T13:35:15;101304.75;;;23.83;47.56
74372;BME280;62885;51.374;6.170;2023-07-13T13:37:41;101313.06;;;23.90;47.73
74372;BME280;62885;51.374;6.170;2023-07-13T13:40:19;101312.28;;;23.66;47.65
74372;BME280;62885;51.374;6.170;2023-07-13T13:42:44;101311.81;;;23.78;47.86